sensor_id;sensor_type;location;lat;lon;timestamp;P1;durP1;ratioP1;P2;durP2;ratioP2
56567;SDS011;42456;49.956;20.004;2024-02-16T00:00:59;17.70;;;9.10;;
56567;SDS011;42456;49.956;20.004;2024-02-16T00:03:26;17.30;;;8.30;;
56567;SDS011;42456;49.956;20.004;2024-02-16T00:05:54;20.20;;;9.30;;
56567;SDS011;42456;49.956;20.004;2024-02-16T00:08:22;19.90;;;8.80;;
56567;SDS011;42456;49.956;20.004;2024-02-16T00:10:48;18.00;;;9.00;;
56567;SDS011;42456;49.956;20.004;2024-02-16T00:13:15;18.00;;;9.40;;
56567;SDS011;42456;49.956;20.004;2024-02-16T00:15:42;18.20;;;8.90;;
56567;SDS011;42456;49.956;20.004;2024-02-16T00:18:10;18.20;;;8.70;;
56567;SDS011;42456;49.956;20.004;2024-02-16T00:20:37;18.20;;;8.70;;
56567;SDS011;42456;49.956;20.004;2024-02-16T00:23:03;19.50;;;8.90;;
56567;SDS011;42456;49.956;20.004;2024-02-16T00:25:31;20.10;;;10.00;;
56567;SDS011;42456;49.956;20.004;2024-02-16T00:27:59;20.10;;;9.50;;
56567;SDS011;42456;49.956;20.004;2024-02-16T00:30:26;17.30;;;8.60;;
56567;SDS011;42456;49.956;20.004;2024-02-16T00:32:54;22.30;;;9.00;;
56567;SDS011;42456;49.956;20.004;2024-02-16T00:35:21;17.50;;;8.40;;
56567;SDS011;42456;49.956;20.004;2024-02-16T00:37:49;17.40;;;8.30;;
56567;SDS011;42456;49.956;20.004;2024-02-16T00:40:15;18.20;;;8.80;;
56567;SDS011;42456;49.956;20.004;2024-02-16T00:42:42;14.60;;;6.90;;
56567;SDS011;42456;49.956;20.004;2024-02-16T00:45:09;15.90;;;7.30;;
56567;SDS011;42456;49.956;20.004;2024-02-16T00:47:36;18.90;;;8.90;;
56567;SDS011;42456;49.956;20.004;2024-02-16T00:50:03;17.10;;;8.50;;
56567;SDS011;42456;49.956;20.004;2024-02-16T00:52:32;19.10;;;8.90;;
56567;SDS011;42456;49.956;20.004;2024-02-16T00:54:59;17.00;;;7.50;;
56567;SDS011;42456;49.956;20.004;2024-02-16T00:57:26;17.50;;;7.90;;
56567;SDS011;42456;49.956;20.004;2024-02-16T00:59:52;16.50;;;7.20;;
56567;SDS011;42456;49.956;20.004;2024-02-16T01:02:21;17.30;;;8.40;;
56567;SDS011;42456;49.956;20.004;2024-02-16T01:04:51;15.40;;;8.10;;
56567;SDS011;42456;49.956;20.004;2024-02-16T01:07:19;16.20;;;7.50;;
56567;SDS011;42456;49.956;20.004;2024-02-16T01:09:46;19.30;;;8.40;;
56567;SDS011;42456;49.956;20.004;2024-02-16T01:12:14;17.50;;;8.20;;
56567;SDS011;42456;49.956;20.004;2024-02-16T01:14:40;17.50;;;7.60;;
56567;SDS011;42456;49.956;20.004;2024-02-16T01:17:07;16.80;;;8.40;;
56567;SDS011;42456;49.956;20.004;2024-02-16T01:19:35;19.00;;;8.20;;
56567;SDS011;42456;49.956;20.004;2024-02-16T01:22:01;17.60;;;9.00;;
56567;SDS011;42456;49.956;20.004;2024-02-16T01:24:30;16.20;;;8.30;;
56567;SDS011;42456;49.956;20.004;2024-02-16T01:26:56;15.70;;;8.20;;
56567;SDS011;42456;49.956;20.004;2024-02-16T01:29:24;17.60;;;8.60;;
56567;SDS011;42456;49.956;20.004;2024-02-16T01:31:51;20.40;;;8.00;;
56567;SDS011;42456;49.956;20.004;2024-02-16T01:34:18;17.30;;;8.10;;
56567;SDS011;42456;49.956;20.004;2024-02-16T01:36:45;17.70;;;8.20;;
56567;SDS011;42456;49.956;20.004;2024-02-16T01:39:12;16.00;;;7.10;;
56567;SDS011;42456;49.956;20.004;2024-02-16T01:41:38;14.50;;;7.40;;
56567;SDS011;42456;49.956;20.004;2024-02-16T01:44:06;18.40;;;7.90;;
56567;SDS011;42456;49.956;20.004;2024-02-16T01:46:33;15.10;;;7.80;;
56567;SDS011;42456;49.956;20.004;2024-02-16T01:49:00;14.80;;;6.50;;
56567;SDS011;42456;49.956;20.004;2024-02-16T01:51:28;17.00;;;8.30;;
56567;SDS011;42456;49.956;20.004;2024-02-16T01:53:55;21.40;;;8.60;;
56567;SDS011;42456;49.956;20.004;2024-02-16T01:56:23;17.60;;;8.00;;
56567;SDS011;42456;49.956;20.004;2024-02-16T01:58:52;16.30;;;7.50;;
56567;SDS011;42456;49.956;20.004;2024-02-16T02:01:18;14.30;;;6.90;;
56567;SDS011;42456;49.956;20.004;2024-02-16T02:03:46;15.10;;;7.20;;
56567;SDS011;42456;49.956;20.004;2024-02-16T02:06:16;12.90;;;6.20;;
56567;SDS011;42456;49.956;20.004;2024-02-16T02:08:43;13.20;;;6.30;;
56567;SDS011;42456;49.956;20.004;2024-02-16T02:11:10;14.40;;;6.40;;
56567;SDS011;42456;49.956;20.004;2024-02-16T02:13:37;14.60;;;7.10;;
56567;SDS011;42456;49.956;20.004;2024-02-16T02:16:04;14.90;;;7.10;;
56567;SDS011;42456;49.956;20.004;2024-02-16T02:18:32;16.90;;;7.80;;
56567;SDS011;42456;49.956;20.004;2024-02-16T02:20:59;18.50;;;7.50;;
56567;SDS011;42456;49.956;20.004;2024-02-16T02:23:26;13.70;;;6.90;;
56567;SDS011;42456;49.956;20.004;2024-02-16T02:25:53;13.80;;;6.70;;
56567;SDS011;42456;49.956;20.004;2024-02-16T02:28:20;15.10;;;6.40;;
56567;SDS011;42456;49.956;20.004;2024-02-16T02:33:17;14.40;;;6.80;;
56567;SDS011;42456;49.956;20.004;2024-02-16T02:35:44;15.80;;;7.50;;
56567;SDS011;42456;49.956;20.004;2024-02-16T02:38:11;17.90;;;8.20;;
56567;SDS011;42456;49.956;20.004;2024-02-16T02:40:38;16.20;;;7.60;;
56567;SDS011;42456;49.956;20.004;2024-02-16T02:43:05;18.20;;;8.60;;
56567;SDS011;42456;49.956;20.004;2024-02-16T02:45:32;15.10;;;7.00;;
56567;SDS011;42456;49.956;20.004;2024-02-16T02:48:00;14.40;;;6.60;;
56567;SDS011;42456;49.956;20.004;2024-02-16T02:50:27;15.80;;;7.30;;
56567;SDS011;42456;49.956;20.004;2024-02-16T02:52:54;15.30;;;8.00;;
56567;SDS011;42456;49.956;20.004;2024-02-16T02:55:21;15.00;;;7.20;;
56567;SDS011;42456;49.956;20.004;2024-02-16T02:57:48;14.90;;;6.80;;
56567;SDS011;42456;49.956;20.004;2024-02-16T03:00:15;14.60;;;6.70;;
56567;SDS011;42456;49.956;20.004;2024-02-16T03:02:42;14.90;;;7.30;;
56567;SDS011;42456;49.956;20.004;2024-02-16T03:05:10;16.40;;;7.60;;
56567;SDS011;42456;49.956;20.004;2024-02-16T03:07:38;16.90;;;8.30;;
56567;SDS011;42456;49.956;20.004;2024-02-16T03:10:05;14.90;;;6.80;;
56567;SDS011;42456;49.956;20.004;2024-02-16T03:12:36;17.80;;;7.70;;
56567;SDS011;42456;49.956;20.004;2024-02-16T03:15:03;13.50;;;7.20;;
56567;SDS011;42456;49.956;20.004;2024-02-16T03:17:30;19.10;;;9.40;;
56567;SDS011;42456;49.956;20.004;2024-02-16T03:19:57;19.40;;;10.10;;
56567;SDS011;42456;49.956;20.004;2024-02-16T03:22:24;16.30;;;8.70;;
56567;SDS011;42456;49.956;20.004;2024-02-16T03:24:51;15.70;;;8.30;;
56567;SDS011;42456;49.956;20.004;2024-02-16T03:27:18;15.30;;;7.30;;
56567;SDS011;42456;49.956;20.004;2024-02-16T03:29:45;17.00;;;7.40;;
56567;SDS011;42456;49.956;20.004;2024-02-16T03:32:12;15.30;;;7.10;;
56567;SDS011;42456;49.956;20.004;2024-02-16T03:34:39;14.30;;;7.40;;
56567;SDS011;42456;49.956;20.004;2024-02-16T03:37:07;14.40;;;6.20;;
56567;SDS011;42456;49.956;20.004;2024-02-16T03:39:35;14.50;;;7.00;;
56567;SDS011;42456;49.956;20.004;2024-02-16T03:42:02;16.50;;;6.90;;
56567;SDS011;42456;49.956;20.004;2024-02-16T03:44:29;13.80;;;6.40;;
56567;SDS011;42456;49.956;20.004;2024-02-16T03:46:56;15.40;;;7.20;;
56567;SDS011;42456;49.956;20.004;2024-02-16T03:49:23;14.30;;;6.90;;
56567;SDS011;42456;49.956;20.004;2024-02-16T03:51:51;11.80;;;5.90;;
56567;SDS011;42456;49.956;20.004;2024-02-16T03:54:18;14.10;;;6.30;;
56567;SDS011;42456;49.956;20.004;2024-02-16T03:56:45;13.20;;;6.80;;
56567;SDS011;42456;49.956;20.004;2024-02-16T03:59:12;16.00;;;7.50;;
56567;SDS011;42456;49.956;20.004;2024-02-16T04:01:39;12.20;;;6.30;;
56567;SDS011;42456;49.956;20.004;2024-02-16T04:04:08;13.40;;;6.50;;
56567;SDS011;42456;49.956;20.004;2024-02-16T04:06:35;13.10;;;6.20;;
56567;SDS011;42456;49.956;20.004;2024-02-16T04:09:03;13.50;;;6.10;;
56567;SDS011;42456;49.956;20.004;2024-02-16T04:11:32;13.90;;;6.80;;
56567;SDS011;42456;49.956;20.004;2024-02-16T04:14:00;14.40;;;7.10;;
56567;SDS011;42456;49.956;20.004;2024-02-16T04:16:28;15.70;;;7.40;;
56567;SDS011;42456;49.956;20.004;2024-02-16T04:18:55;13.20;;;6.40;;
56567;SDS011;42456;49.956;20.004;2024-02-16T04:21:22;13.30;;;6.80;;
56567;SDS011;42456;49.956;20.004;2024-02-16T04:23:49;13.90;;;6.50;;
56567;SDS011;42456;49.956;20.004;2024-02-16T04:26:16;11.50;;;6.20;;
56567;SDS011;42456;49.956;20.004;2024-02-16T04:28:43;14.50;;;6.20;;
56567;SDS011;42456;49.956;20.004;2024-02-16T04:31:10;13.60;;;6.60;;
56567;SDS011;42456;49.956;20.004;2024-02-16T04:33:37;13.50;;;6.60;;
56567;SDS011;42456;49.956;20.004;2024-02-16T04:36:07;16.30;;;6.80;;
56567;SDS011;42456;49.956;20.004;2024-02-16T04:38:34;15.30;;;7.60;;
56567;SDS011;42456;49.956;20.004;2024-02-16T04:41:01;14.80;;;6.70;;
56567;SDS011;42456;49.956;20.004;2024-02-16T04:43:31;14.70;;;6.30;;
56567;SDS011;42456;49.956;20.004;2024-02-16T04:45:58;13.60;;;6.60;;
56567;SDS011;42456;49.956;20.004;2024-02-16T04:48:26;16.40;;;8.00;;
56567;SDS011;42456;49.956;20.004;2024-02-16T04:50:53;17.90;;;9.10;;
56567;SDS011;42456;49.956;20.004;2024-02-16T04:53:20;19.00;;;9.80;;
56567;SDS011;42456;49.956;20.004;2024-02-16T04:55:46;15.90;;;8.20;;
56567;SDS011;42456;49.956;20.004;2024-02-16T04:58:14;16.30;;;7.70;;
56567;SDS011;42456;49.956;20.004;2024-02-16T05:00:41;17.10;;;8.40;;
56567;SDS011;42456;49.956;20.004;2024-02-16T05:03:08;14.00;;;7.50;;
56567;SDS011;42456;49.956;20.004;2024-02-16T05:05:35;14.40;;;7.00;;
56567;SDS011;42456;49.956;20.004;2024-02-16T05:08:02;16.40;;;7.90;;
56567;SDS011;42456;49.956;20.004;2024-02-16T05:10:29;13.90;;;7.30;;
56567;SDS011;42456;49.956;20.004;2024-02-16T05:12:55;15.80;;;7.60;;
56567;SDS011;42456;49.956;20.004;2024-02-16T05:15:24;13.40;;;6.60;;
56567;SDS011;42456;49.956;20.004;2024-02-16T05:17:52;14.60;;;6.60;;
56567;SDS011;42456;49.956;20.004;2024-02-16T05:20:19;16.10;;;8.90;;
56567;SDS011;42456;49.956;20.004;2024-02-16T05:22:46;18.00;;;9.50;;
56567;SDS011;42456;49.956;20.004;2024-02-16T05:25:16;17.00;;;8.50;;
56567;SDS011;42456;49.956;20.004;2024-02-16T05:27:44;18.90;;;8.80;;
56567;SDS011;42456;49.956;20.004;2024-02-16T05:30:13;19.20;;;8.60;;
56567;SDS011;42456;49.956;20.004;2024-02-16T05:32:42;16.80;;;8.60;;
56567;SDS011;42456;49.956;20.004;2024-02-16T05:35:09;19.20;;;8.90;;
56567;SDS011;42456;49.956;20.004;2024-02-16T05:37:42;18.80;;;8.80;;
56567;SDS011;42456;49.956;20.004;2024-02-16T05:40:19;17.00;;;8.40;;
56567;SDS011;42456;49.956;20.004;2024-02-16T05:42:53;16.60;;;7.80;;
56567;SDS011;42456;49.956;20.004;2024-02-16T05:45:20;17.50;;;8.10;;
56567;SDS011;42456;49.956;20.004;2024-02-16T05:47:48;19.10;;;8.50;;
56567;SDS011;42456;49.956;20.004;2024-02-16T05:50:16;17.90;;;8.40;;
56567;SDS011;42456;49.956;20.004;2024-02-16T05:52:44;18.90;;;8.40;;
56567;SDS011;42456;49.956;20.004;2024-02-16T05:55:11;17.90;;;9.20;;
56567;SDS011;42456;49.956;20.004;2024-02-16T05:57:39;22.50;;;10.30;;
56567;SDS011;42456;49.956;20.004;2024-02-16T06:00:07;24.60;;;11.20;;
56567;SDS011;42456;49.956;20.004;2024-02-16T06:02:36;18.90;;;9.50;;
56567;SDS011;42456;49.956;20.004;2024-02-16T06:05:03;21.50;;;9.80;;
56567;SDS011;42456;49.956;20.004;2024-02-16T06:07:31;22.40;;;10.40;;
56567;SDS011;42456;49.956;20.004;2024-02-16T06:09:58;28.60;;;11.10;;
56567;SDS011;42456;49.956;20.004;2024-02-16T06:12:25;23.00;;;10.70;;
56567;SDS011;42456;49.956;20.004;2024-02-16T06:14:52;23.20;;;10.70;;
56567;SDS011;42456;49.956;20.004;2024-02-16T06:17:21;27.00;;;11.50;;
56567;SDS011;42456;49.956;20.004;2024-02-16T06:19:47;28.00;;;14.30;;
56567;SDS011;42456;49.956;20.004;2024-02-16T06:22:15;26.10;;;13.40;;
56567;SDS011;42456;49.956;20.004;2024-02-16T06:24:42;23.80;;;11.10;;
56567;SDS011;42456;49.956;20.004;2024-02-16T06:27:09;21.40;;;10.50;;
56567;SDS011;42456;49.956;20.004;2024-02-16T06:29:36;21.00;;;10.80;;
56567;SDS011;42456;49.956;20.004;2024-02-16T06:32:03;23.90;;;10.90;;
56567;SDS011;42456;49.956;20.004;2024-02-16T06:34:30;24.30;;;12.00;;
56567;SDS011;42456;49.956;20.004;2024-02-16T06:36:58;25.20;;;12.50;;
56567;SDS011;42456;49.956;20.004;2024-02-16T06:39:25;24.50;;;11.70;;
56567;SDS011;42456;49.956;20.004;2024-02-16T06:41:51;19.20;;;10.10;;
56567;SDS011;42456;49.956;20.004;2024-02-16T06:44:19;19.00;;;9.70;;
56567;SDS011;42456;49.956;20.004;2024-02-16T06:46:50;20.20;;;9.80;;
56567;SDS011;42456;49.956;20.004;2024-02-16T06:49:16;20.30;;;9.70;;
56567;SDS011;42456;49.956;20.004;2024-02-16T06:51:43;21.10;;;11.00;;
56567;SDS011;42456;49.956;20.004;2024-02-16T06:54:12;21.90;;;10.90;;
56567;SDS011;42456;49.956;20.004;2024-02-16T06:56:39;21.00;;;10.60;;
56567;SDS011;42456;49.956;20.004;2024-02-16T06:59:05;20.80;;;11.10;;
56567;SDS011;42456;49.956;20.004;2024-02-16T07:01:32;21.00;;;10.60;;
56567;SDS011;42456;49.956;20.004;2024-02-16T07:03:59;20.20;;;10.30;;
56567;SDS011;42456;49.956;20.004;2024-02-16T07:06:28;18.60;;;9.50;;
56567;SDS011;42456;49.956;20.004;2024-02-16T07:08:55;16.90;;;9.20;;
56567;SDS011;42456;49.956;20.004;2024-02-16T07:11:22;17.80;;;8.80;;
56567;SDS011;42456;49.956;20.004;2024-02-16T07:13:50;17.70;;;8.90;;
56567;SDS011;42456;49.956;20.004;2024-02-16T07:16:17;17.20;;;8.60;;
56567;SDS011;42456;49.956;20.004;2024-02-16T07:18:45;17.80;;;8.50;;
56567;SDS011;42456;49.956;20.004;2024-02-16T07:21:12;15.40;;;7.90;;
56567;SDS011;42456;49.956;20.004;2024-02-16T07:23:40;18.10;;;8.30;;
56567;SDS011;42456;49.956;20.004;2024-02-16T07:26:06;17.00;;;8.60;;
56567;SDS011;42456;49.956;20.004;2024-02-16T07:28:34;17.50;;;8.50;;
56567;SDS011;42456;49.956;20.004;2024-02-16T07:31:01;15.20;;;8.00;;
56567;SDS011;42456;49.956;20.004;2024-02-16T07:33:29;15.90;;;7.40;;
56567;SDS011;42456;49.956;20.004;2024-02-16T07:35:57;17.50;;;9.60;;
56567;SDS011;42456;49.956;20.004;2024-02-16T07:38:24;17.80;;;9.10;;
56567;SDS011;42456;49.956;20.004;2024-02-16T07:40:51;18.30;;;9.80;;
56567;SDS011;42456;49.956;20.004;2024-02-16T07:43:18;17.80;;;9.70;;
56567;SDS011;42456;49.956;20.004;2024-02-16T07:45:45;16.70;;;8.20;;
56567;SDS011;42456;49.956;20.004;2024-02-16T07:48:13;18.20;;;8.90;;
56567;SDS011;42456;49.956;20.004;2024-02-16T07:50:41;19.50;;;9.40;;
56567;SDS011;42456;49.956;20.004;2024-02-16T07:53:08;15.90;;;8.10;;
56567;SDS011;42456;49.956;20.004;2024-02-16T07:55:37;15.70;;;8.10;;
56567;SDS011;42456;49.956;20.004;2024-02-16T07:58:05;15.60;;;7.90;;
56567;SDS011;42456;49.956;20.004;2024-02-16T08:00:31;17.80;;;8.30;;
56567;SDS011;42456;49.956;20.004;2024-02-16T08:02:59;17.20;;;8.30;;
56567;SDS011;42456;49.956;20.004;2024-02-16T08:05:26;16.50;;;8.40;;
56567;SDS011;42456;49.956;20.004;2024-02-16T08:07:54;17.10;;;9.20;;
56567;SDS011;42456;49.956;20.004;2024-02-16T08:10:21;14.50;;;7.60;;
56567;SDS011;42456;49.956;20.004;2024-02-16T08:12:49;16.30;;;7.90;;
56567;SDS011;42456;49.956;20.004;2024-02-16T08:15:16;14.70;;;7.50;;
56567;SDS011;42456;49.956;20.004;2024-02-16T08:17:50;15.80;;;7.90;;
56567;SDS011;42456;49.956;20.004;2024-02-16T08:20:18;15.40;;;7.40;;
56567;SDS011;42456;49.956;20.004;2024-02-16T08:22:45;16.40;;;8.40;;
56567;SDS011;42456;49.956;20.004;2024-02-16T08:25:13;15.00;;;7.50;;
56567;SDS011;42456;49.956;20.004;2024-02-16T08:27:40;17.80;;;8.60;;
56567;SDS011;42456;49.956;20.004;2024-02-16T08:30:07;13.40;;;6.70;;
56567;SDS011;42456;49.956;20.004;2024-02-16T08:32:36;12.00;;;5.50;;
56567;SDS011;42456;49.956;20.004;2024-02-16T08:35:06;12.20;;;5.60;;
56567;SDS011;42456;49.956;20.004;2024-02-16T08:37:33;11.70;;;5.30;;
56567;SDS011;42456;49.956;20.004;2024-02-16T08:40:01;12.00;;;5.70;;
56567;SDS011;42456;49.956;20.004;2024-02-16T08:42:30;10.70;;;5.50;;
56567;SDS011;42456;49.956;20.004;2024-02-16T08:44:58;13.40;;;6.00;;
56567;SDS011;42456;49.956;20.004;2024-02-16T08:47:27;8.50;;;4.40;;
56567;SDS011;42456;49.956;20.004;2024-02-16T08:49:54;8.40;;;4.10;;
56567;SDS011;42456;49.956;20.004;2024-02-16T08:52:21;9.80;;;4.00;;
56567;SDS011;42456;49.956;20.004;2024-02-16T08:54:48;7.50;;;3.70;;
56567;SDS011;42456;49.956;20.004;2024-02-16T08:57:15;7.40;;;3.70;;
56567;SDS011;42456;49.956;20.004;2024-02-16T08:59:42;9.60;;;3.80;;
56567;SDS011;42456;49.956;20.004;2024-02-16T09:02:11;7.40;;;3.70;;
56567;SDS011;42456;49.956;20.004;2024-02-16T09:04:38;8.30;;;3.80;;
56567;SDS011;42456;49.956;20.004;2024-02-16T09:07:05;7.10;;;3.60;;
56567;SDS011;42456;49.956;20.004;2024-02-16T09:09:32;6.70;;;3.60;;
56567;SDS011;42456;49.956;20.004;2024-02-16T09:12:13;8.70;;;4.00;;
56567;SDS011;42456;49.956;20.004;2024-02-16T09:14:41;9.40;;;4.10;;
56567;SDS011;42456;49.956;20.004;2024-02-16T09:17:07;9.70;;;4.30;;
56567;SDS011;42456;49.956;20.004;2024-02-16T09:19:34;7.00;;;3.80;;
56567;SDS011;42456;49.956;20.004;2024-02-16T09:22:01;10.80;;;4.60;;
56567;SDS011;42456;49.956;20.004;2024-02-16T09:24:29;7.60;;;3.60;;
56567;SDS011;42456;49.956;20.004;2024-02-16T09:26:57;7.30;;;4.10;;
56567;SDS011;42456;49.956;20.004;2024-02-16T09:29:27;10.00;;;4.50;;
56567;SDS011;42456;49.956;20.004;2024-02-16T09:31:55;8.30;;;4.10;;
56567;SDS011;42456;49.956;20.004;2024-02-16T09:34:22;7.60;;;3.70;;
56567;SDS011;42456;49.956;20.004;2024-02-16T09:36:49;6.50;;;5.70;;
56567;SDS011;42456;49.956;20.004;2024-02-16T09:39:16;8.60;;;4.20;;
56567;SDS011;42456;49.956;20.004;2024-02-16T09:41:43;7.40;;;3.90;;
56567;SDS011;42456;49.956;20.004;2024-02-16T09:44:16;10.10;;;4.20;;
56567;SDS011;42456;49.956;20.004;2024-02-16T09:46:44;6.20;;;3.90;;
56567;SDS011;42456;49.956;20.004;2024-02-16T09:49:11;9.30;;;4.60;;
56567;SDS011;42456;49.956;20.004;2024-02-16T09:51:38;8.50;;;4.60;;
56567;SDS011;42456;49.956;20.004;2024-02-16T09:54:05;10.50;;;4.60;;
56567;SDS011;42456;49.956;20.004;2024-02-16T09:56:34;10.00;;;4.60;;
56567;SDS011;42456;49.956;20.004;2024-02-16T09:59:01;8.30;;;4.20;;
56567;SDS011;42456;49.956;20.004;2024-02-16T10:01:32;6.60;;;3.80;;
56567;SDS011;42456;49.956;20.004;2024-02-16T10:04:05;7.50;;;4.00;;
56567;SDS011;42456;49.956;20.004;2024-02-16T10:06:45;8.10;;;4.30;;
56567;SDS011;42456;49.956;20.004;2024-02-16T10:09:24;7.60;;;4.00;;
56567;SDS011;42456;49.956;20.004;2024-02-16T10:11:52;7.40;;;4.00;;
56567;SDS011;42456;49.956;20.004;2024-02-16T10:14:19;7.60;;;3.90;;
56567;SDS011;42456;49.956;20.004;2024-02-16T10:16:58;8.20;;;4.10;;
56567;SDS011;42456;49.956;20.004;2024-02-16T10:19:30;5.50;;;3.50;;
56567;SDS011;42456;49.956;20.004;2024-02-16T10:22:08;7.60;;;3.80;;
56567;SDS011;42456;49.956;20.004;2024-02-16T10:24:40;7.10;;;3.50;;
56567;SDS011;42456;49.956;20.004;2024-02-16T10:27:16;6.00;;;3.10;;
56567;SDS011;42456;49.956;20.004;2024-02-16T10:29:46;5.90;;;3.30;;
56567;SDS011;42456;49.956;20.004;2024-02-16T10:32:17;5.50;;;3.10;;
56567;SDS011;42456;49.956;20.004;2024-02-16T10:34:46;6.20;;;3.50;;
56567;SDS011;42456;49.956;20.004;2024-02-16T10:37:16;6.00;;;3.50;;
56567;SDS011;42456;49.956;20.004;2024-02-16T10:39:44;5.50;;;3.40;;
56567;SDS011;42456;49.956;20.004;2024-02-16T10:42:12;5.60;;;3.40;;
56567;SDS011;42456;49.956;20.004;2024-02-16T10:44:42;4.90;;;3.20;;
56567;SDS011;42456;49.956;20.004;2024-02-16T10:47:10;6.90;;;3.20;;
56567;SDS011;42456;49.956;20.004;2024-02-16T10:49:37;6.80;;;3.60;;
56567;SDS011;42456;49.956;20.004;2024-02-16T10:52:05;6.60;;;3.40;;
56567;SDS011;42456;49.956;20.004;2024-02-16T10:54:34;6.70;;;3.30;;
56567;SDS011;42456;49.956;20.004;2024-02-16T10:57:07;4.40;;;3.00;;
56567;SDS011;42456;49.956;20.004;2024-02-16T10:59:42;5.30;;;2.90;;
56567;SDS011;42456;49.956;20.004;2024-02-16T11:02:10;4.70;;;2.80;;
56567;SDS011;42456;49.956;20.004;2024-02-16T11:04:38;4.60;;;3.00;;
56567;SDS011;42456;49.956;20.004;2024-02-16T11:07:19;6.30;;;2.90;;
56567;SDS011;42456;49.956;20.004;2024-02-16T11:09:47;5.20;;;2.80;;
56567;SDS011;42456;49.956;20.004;2024-02-16T11:12:15;5.50;;;2.40;;
56567;SDS011;42456;49.956;20.004;2024-02-16T11:14:46;5.00;;;2.60;;
56567;SDS011;42456;49.956;20.004;2024-02-16T11:17:16;5.30;;;2.70;;
56567;SDS011;42456;49.956;20.004;2024-02-16T11:19:48;5.90;;;2.70;;
56567;SDS011;42456;49.956;20.004;2024-02-16T11:22:17;5.30;;;2.70;;
56567;SDS011;42456;49.956;20.004;2024-02-16T11:24:50;5.70;;;3.00;;
56567;SDS011;42456;49.956;20.004;2024-02-16T11:27:25;7.20;;;2.70;;
56567;SDS011;42456;49.956;20.004;2024-02-16T11:29:52;5.30;;;2.90;;
56567;SDS011;42456;49.956;20.004;2024-02-16T11:32:20;6.00;;;3.00;;
56567;SDS011;42456;49.956;20.004;2024-02-16T11:34:48;15.30;;;7.20;;
56567;SDS011;42456;49.956;20.004;2024-02-16T11:37:15;6.80;;;3.10;;
56567;SDS011;42456;49.956;20.004;2024-02-16T11:39:42;6.90;;;3.30;;
56567;SDS011;42456;49.956;20.004;2024-02-16T11:42:12;8.10;;;3.40;;
56567;SDS011;42456;49.956;20.004;2024-02-16T11:44:50;6.70;;;3.50;;
56567;SDS011;42456;49.956;20.004;2024-02-16T11:47:22;6.70;;;3.30;;
56567;SDS011;42456;49.956;20.004;2024-02-16T11:50:14;6.90;;;3.30;;
56567;SDS011;42456;49.956;20.004;2024-02-16T11:52:46;6.20;;;3.50;;
56567;SDS011;42456;49.956;20.004;2024-02-16T11:55:13;7.80;;;3.90;;
56567;SDS011;42456;49.956;20.004;2024-02-16T11:57:42;7.80;;;3.20;;
56567;SDS011;42456;49.956;20.004;2024-02-16T12:00:10;5.80;;;3.00;;
56567;SDS011;42456;49.956;20.004;2024-02-16T12:02:42;6.40;;;3.50;;
56567;SDS011;42456;49.956;20.004;2024-02-16T12:05:09;6.80;;;3.40;;
56567;SDS011;42456;49.956;20.004;2024-02-16T12:07:42;6.90;;;3.50;;
56567;SDS011;42456;49.956;20.004;2024-02-16T12:10:10;6.70;;;3.40;;
56567;SDS011;42456;49.956;20.004;2024-02-16T12:12:37;8.20;;;3.60;;
56567;SDS011;42456;49.956;20.004;2024-02-16T12:15:05;5.40;;;3.20;;
56567;SDS011;42456;49.956;20.004;2024-02-16T12:20:01;6.50;;;3.30;;
56567;SDS011;42456;49.956;20.004;2024-02-16T12:22:30;6.50;;;3.10;;
56567;SDS011;42456;49.956;20.004;2024-02-16T12:24:56;8.60;;;3.30;;
56567;SDS011;42456;49.956;20.004;2024-02-16T12:27:28;5.30;;;3.20;;
56567;SDS011;42456;49.956;20.004;2024-02-16T12:29:55;6.30;;;3.60;;
56567;SDS011;42456;49.956;20.004;2024-02-16T12:32:22;7.50;;;3.50;;
56567;SDS011;42456;49.956;20.004;2024-02-16T12:34:52;6.00;;;3.30;;
56567;SDS011;42456;49.956;20.004;2024-02-16T12:37:19;5.50;;;3.20;;
56567;SDS011;42456;49.956;20.004;2024-02-16T12:39:46;5.80;;;3.10;;
56567;SDS011;42456;49.956;20.004;2024-02-16T12:42:14;5.70;;;3.10;;
56567;SDS011;42456;49.956;20.004;2024-02-16T12:44:41;5.30;;;2.90;;
56567;SDS011;42456;49.956;20.004;2024-02-16T12:47:08;4.90;;;2.80;;
56567;SDS011;42456;49.956;20.004;2024-02-16T12:49:35;5.20;;;2.90;;
56567;SDS011;42456;49.956;20.004;2024-02-16T12:52:02;6.30;;;2.70;;
56567;SDS011;42456;49.956;20.004;2024-02-16T12:54:29;5.40;;;3.10;;
56567;SDS011;42456;49.956;20.004;2024-02-16T12:56:58;6.50;;;3.40;;
56567;SDS011;42456;49.956;20.004;2024-02-16T12:59:25;6.60;;;3.20;;
56567;SDS011;42456;49.956;20.004;2024-02-16T13:01:52;4.70;;;2.80;;
56567;SDS011;42456;49.956;20.004;2024-02-16T13:04:19;5.60;;;3.20;;
56567;SDS011;42456;49.956;20.004;2024-02-16T13:06:49;5.70;;;2.90;;
56567;SDS011;42456;49.956;20.004;2024-02-16T13:09:19;5.50;;;3.00;;
56567;SDS011;42456;49.956;20.004;2024-02-16T13:11:46;5.20;;;3.00;;
56567;SDS011;42456;49.956;20.004;2024-02-16T13:14:21;6.80;;;2.80;;
56567;SDS011;42456;49.956;20.004;2024-02-16T13:16:48;7.70;;;3.00;;
56567;SDS011;42456;49.956;20.004;2024-02-16T13:19:15;6.50;;;2.90;;
56567;SDS011;42456;49.956;20.004;2024-02-16T13:21:45;6.40;;;3.40;;
56567;SDS011;42456;49.956;20.004;2024-02-16T13:24:12;8.30;;;3.40;;
56567;SDS011;42456;49.956;20.004;2024-02-16T13:26:40;6.40;;;3.30;;
56567;SDS011;42456;49.956;20.004;2024-02-16T13:29:07;6.10;;;3.40;;
56567;SDS011;42456;49.956;20.004;2024-02-16T13:31:33;7.60;;;3.20;;
56567;SDS011;42456;49.956;20.004;2024-02-16T13:34:01;4.70;;;3.30;;
56567;SDS011;42456;49.956;20.004;2024-02-16T13:36:28;6.10;;;3.50;;
56567;SDS011;42456;49.956;20.004;2024-02-16T13:38:55;5.30;;;3.10;;
56567;SDS011;42456;49.956;20.004;2024-02-16T13:41:22;5.40;;;3.20;;
56567;SDS011;42456;49.956;20.004;2024-02-16T13:43:50;5.30;;;3.00;;
56567;SDS011;42456;49.956;20.004;2024-02-16T13:46:18;7.20;;;3.30;;
56567;SDS011;42456;49.956;20.004;2024-02-16T13:48:44;9.10;;;3.50;;
56567;SDS011;42456;49.956;20.004;2024-02-16T13:51:12;6.70;;;3.10;;
56567;SDS011;42456;49.956;20.004;2024-02-16T13:53:38;6.50;;;3.50;;
56567;SDS011;42456;49.956;20.004;2024-02-16T13:56:06;7.30;;;3.30;;
56567;SDS011;42456;49.956;20.004;2024-02-16T13:58:33;7.20;;;3.60;;
56567;SDS011;42456;49.956;20.004;2024-02-16T14:01:04;6.00;;;3.50;;
56567;SDS011;42456;49.956;20.004;2024-02-16T14:03:32;7.00;;;3.30;;
56567;SDS011;42456;49.956;20.004;2024-02-16T14:06:00;6.10;;;3.20;;
56567;SDS011;42456;49.956;20.004;2024-02-16T14:08:28;5.00;;;3.10;;
56567;SDS011;42456;49.956;20.004;2024-02-16T14:10:55;6.50;;;3.60;;
56567;SDS011;42456;49.956;20.004;2024-02-16T14:13:22;5.60;;;3.60;;
56567;SDS011;42456;49.956;20.004;2024-02-16T14:15:51;6.50;;;3.50;;
56567;SDS011;42456;49.956;20.004;2024-02-16T14:18:19;6.50;;;3.40;;
56567;SDS011;42456;49.956;20.004;2024-02-16T14:21:00;8.00;;;3.80;;
56567;SDS011;42456;49.956;20.004;2024-02-16T14:23:29;8.00;;;3.70;;
56567;SDS011;42456;49.956;20.004;2024-02-16T14:25:57;7.10;;;3.90;;
56567;SDS011;42456;49.956;20.004;2024-02-16T14:28:24;6.20;;;3.90;;
56567;SDS011;42456;49.956;20.004;2024-02-16T14:30:52;8.10;;;4.10;;
56567;SDS011;42456;49.956;20.004;2024-02-16T14:33:20;9.10;;;4.40;;
56567;SDS011;42456;49.956;20.004;2024-02-16T14:38:27;9.20;;;4.20;;